Aérodrome :
LOGIN :

S'inscrire | Disclaimer

   EN    FR    IT 

 










Légende :    VFR   VFR Marginal   IFR   IFR Intensif   IFR Très Intensif
Visi : 
Plafond : 
>= 8 km
>= 3000ft
5 à 8 km
1000 à 3000 ft
1500m à 5 km
500 à 1000 ft
800 à 1500m
200 à 500 ft
< 800m
< 200 ft
Symboles :   Orages  Brouillard  Fortes neiges  Fortes précipitations  Vent > 20 kt
SIGMETs :   Divers  Orages  Givrage  Turbulence  Onde Orograph.  Cendres Volcan.







- Altitude de l'aérodrome : 399 ft
- Code IATA : KIV


LUKK - Chisinau Int.

DERNIER METAR :
  • 201900Z 16003KT 120V180 0150 R08/0750D FG VV001 01/01 Q1014 R08/190095 TEMPO 0500 FG VV002

METARs EXPIRÉS :
  • 201830Z 12004KT 090V150 0500 R08/1200D -RA FG VV002 01/01 Q1014 R08/190095 TEMPO 0500 FG VV002
  • 201800Z 13006KT 2000 R08/2000D -RA BR OVC002 01/01 Q1014 R08/190095 TEMPO 2400 SHRA BR BKN002 BKN010CB
  • 201730Z 14008KT 3900 -RA BR OVC004 01/00 Q1015 WS RWY08 R08/190095 TEMPO 2400 SHRA BR BKN002 BKN010CB
  • 201700Z 14009KT 5000 BR OVC005 01/00 Q1015 R08/190095 TEMPO 4100 RA BR OVC006
  • 201630Z 14007KT 7000 OVC006 01/00 Q1015 R08/190095 TEMPO 4100 RA BR OVC006

TAF AMD TAF LUKK
Valide du 20 à 19h jusqu'au 21 à 18h UTC


201915Z 2019/2118 15008KT 0150 RA FG VV001
TEMPO 2021/2102 1200 SHRA BR OVC002 BKN006CB
FM210200 34014KT 5000 SN BR BKN007
TEMPO 2103/2108 1800 BKN005
BECMG 2109/2111 9999 NSW BKN015
Pas de NOTAMs connus pour ce terrain.



MET'MAP, la Météo Aéronautique d'un coup d'oeil ! - Copyright ORBIFLY Décembre 2007 - Disclaimer

ORBIFLY MET'MAP TEAM :

Programmation & Développement : Alexandra Zaïnal
Conception & Développement : Baudouin d'Aumeries
Co-Programmation & Développement : Marc-Olivier Méhu
Soutien technique & logistique : Manuel Goepfert

Contact : metmap@orbifly.com




SOURCES & CREDITS :

   NOAA